createdAt,value
2022-08-20T00:02:55.388Z,43.90
2022-08-20T00:08:00.439Z,43.90
2022-08-20T00:13:03.339Z,43.90
2022-08-20T00:18:06.812Z,43.80
2022-08-20T00:23:11.219Z,43.90
2022-08-20T00:28:14.404Z,43.90
2022-08-20T00:33:18.600Z,43.90
2022-08-20T00:38:22.819Z,43.90
2022-08-20T00:43:29.689Z,43.90
2022-08-20T00:48:33.324Z,43.90
2022-08-20T00:53:38.327Z,44.00
2022-08-20T00:58:41.972Z,43.90
2022-08-20T01:03:44.843Z,44.00
2022-08-20T01:08:49.080Z,44.00
2022-08-20T01:13:52.073Z,44.00
2022-08-20T01:18:56.494Z,44.00
2022-08-20T01:24:04.044Z,44.00
2022-08-20T01:29:09.465Z,44.00
2022-08-20T01:34:13.148Z,44.10
2022-08-20T01:39:17.259Z,44.10
2022-08-20T01:44:21.827Z,44.10
2022-08-20T01:49:29.497Z,44.00
2022-08-20T01:54:33.795Z,44.10
2022-08-20T01:59:38.140Z,44.00
2022-08-20T02:04:41.649Z,44.10
2022-08-20T02:09:44.751Z,44.10
2022-08-20T02:14:51.208Z,44.00
2022-08-20T02:19:56.448Z,44.00
2022-08-20T02:24:59.244Z,44.10
2022-08-20T02:30:05.084Z,44.10
2022-08-20T02:35:10.406Z,44.10
2022-08-20T02:40:15.984Z,44.10
2022-08-20T02:45:22.418Z,44.10
2022-08-20T02:50:26.623Z,44.70
2022-08-20T02:55:29.451Z,44.10
2022-08-20T03:00:38.527Z,44.10
2022-08-20T03:05:42.383Z,44.10
2022-08-20T03:10:46.790Z,44.10
2022-08-20T03:15:57.956Z,44.10
2022-08-20T03:21:01.965Z,44.10
2022-08-20T03:26:05.705Z,44.10
2022-08-20T03:31:10.245Z,44.10
2022-08-20T03:36:15.530Z,44.10
2022-08-20T03:41:25.441Z,44.10
2022-08-20T03:46:29.619Z,44.10
2022-08-20T03:51:51.503Z,44.10
2022-08-20T03:56:56.207Z,44.10
2022-08-20T04:02:00.452Z,44.10
2022-08-20T04:07:10.445Z,44.00
2022-08-20T04:12:13.580Z,44.20
2022-08-20T04:17:18.668Z,44.10
2022-08-20T04:22:21.807Z,44.10
2022-08-20T04:27:24.644Z,44.10
2022-08-20T04:32:28.854Z,44.10
2022-08-20T04:37:33.715Z,44.20
2022-08-20T04:42:37.328Z,44.20
2022-08-20T04:47:43.377Z,44.20
2022-08-20T04:52:47.613Z,44.20
2022-08-20T04:57:50.428Z,44.20
2022-08-20T05:02:54.637Z,44.20
2022-08-20T05:07:58.330Z,44.20
2022-08-20T05:13:01.247Z,44.20
2022-08-20T05:18:07.787Z,44.20
2022-08-20T05:23:11.939Z,44.30
2022-08-20T05:28:18.080Z,44.30
2022-08-20T05:33:23.142Z,44.40
2022-08-20T05:38:27.147Z,44.40
2022-08-20T05:43:29.989Z,44.40
2022-08-20T05:48:35.762Z,44.50
2022-08-20T05:53:38.585Z,44.50
2022-08-20T05:58:41.412Z,44.60
2022-08-20T06:04:02.861Z,45.00
2022-08-20T06:09:05.730Z,44.50
2022-08-20T06:14:08.576Z,44.50
2022-08-20T06:19:12.977Z,44.60
2022-08-20T06:24:16.332Z,44.50
2022-08-20T06:29:19.367Z,44.50
2022-08-20T06:34:24.171Z,44.60
2022-08-20T06:39:28.605Z,44.60
2022-08-20T06:44:31.743Z,44.60
2022-08-20T06:49:37.043Z,44.60
2022-08-20T06:54:39.865Z,44.60
2022-08-20T06:59:42.917Z,44.60
2022-08-20T07:04:48.027Z,44.60
2022-08-20T07:09:51.311Z,44.60
2022-08-20T07:14:54.381Z,44.60
2022-08-20T07:19:58.547Z,44.60
2022-08-20T07:25:02.457Z,44.60
2022-08-20T07:30:22.779Z,44.60
2022-08-20T07:35:27.195Z,44.70
2022-08-20T07:40:31.137Z,44.60
2022-08-20T07:45:36.320Z,44.60
2022-08-20T07:50:43.010Z,44.70
2022-08-20T07:55:51.152Z,44.70
2022-08-20T08:01:01.836Z,44.60
2022-08-20T08:06:06.216Z,44.70
2022-08-20T08:11:09.351Z,44.70
2022-08-20T08:16:12.212Z,44.80
2022-08-20T08:21:17.748Z,44.70
2022-08-20T08:26:22.435Z,44.80
2022-08-20T08:31:25.839Z,44.90
2022-08-20T08:36:30.206Z,45.00
2022-08-20T08:41:34.909Z,45.00
2022-08-20T08:46:41.021Z,45.10
2022-08-20T08:51:46.341Z,45.10
2022-08-20T08:56:50.183Z,45.10
2022-08-20T09:01:57.169Z,45.20
2022-08-20T09:07:02.901Z,45.20
2022-08-20T09:12:07.173Z,45.30
2022-08-20T09:17:10.128Z,45.40
2022-08-20T09:22:15.628Z,45.80
2022-08-20T09:27:18.791Z,46.20
2022-08-20T09:32:22.683Z,46.50
2022-08-20T09:37:28.262Z,46.50
2022-08-20T09:42:36.230Z,46.50
2022-08-20T09:47:55.178Z,46.50
2022-08-20T09:53:02.267Z,46.50
2022-08-20T09:58:07.508Z,46.40
2022-08-20T10:03:10.360Z,46.40
2022-08-20T10:08:14.556Z,46.30
2022-08-20T10:13:17.708Z,46.30
2022-08-20T10:18:20.787Z,46.20
2022-08-20T10:23:25.037Z,46.20
2022-08-20T10:28:27.912Z,46.20
2022-08-20T10:33:30.733Z,46.20
2022-08-20T10:38:34.992Z,46.10
2022-08-20T10:43:37.862Z,46.20
2022-08-20T10:48:40.676Z,46.20
2022-08-20T10:53:44.927Z,46.30
2022-08-20T10:58:48.304Z,46.20
2022-08-20T11:03:51.137Z,46.30
2022-08-20T11:08:57.262Z,46.10
2022-08-20T11:14:00.147Z,46.10
2022-08-20T11:19:02.983Z,46.00
2022-08-20T11:24:07.367Z,46.00
2022-08-20T11:29:10.209Z,46.00
2022-08-20T11:34:13.056Z,45.90
2022-08-20T11:39:17.662Z,45.80
2022-08-20T11:44:21.760Z,45.80
2022-08-20T11:49:24.631Z,45.90
2022-08-20T11:54:29.456Z,45.90
2022-08-20T11:59:32.252Z,45.90
2022-08-20T12:04:35.366Z,46.00
2022-08-20T12:09:41.169Z,46.00
2022-08-20T12:14:53.771Z,46.30
2022-08-20T12:20:01.676Z,46.40
2022-08-20T12:25:07.482Z,46.50
2022-08-20T12:30:11.466Z,46.50
2022-08-20T12:35:16.016Z,46.40
2022-08-20T12:40:26.593Z,46.40
2022-08-20T12:45:36.631Z,46.60
2022-08-20T12:50:40.903Z,46.40
2022-08-20T12:55:45.176Z,46.50
2022-08-20T13:00:50.642Z,46.70
2022-08-20T13:05:54.100Z,46.70
2022-08-20T13:10:58.324Z,46.70
2022-08-20T13:16:01.123Z,46.70
2022-08-20T13:21:03.960Z,46.60
2022-08-20T13:26:08.245Z,46.60
2022-08-20T13:31:11.112Z,46.60
2022-08-20T13:36:14.278Z,46.60
2022-08-20T13:41:18.471Z,46.40
2022-08-20T13:46:21.313Z,46.40
2022-08-20T13:51:24.136Z,46.30
2022-08-20T13:56:31.852Z,46.30
2022-08-20T14:01:34.731Z,46.10
2022-08-20T14:06:37.561Z,46.10
2022-08-20T14:11:41.756Z,46.00
2022-08-20T14:16:44.561Z,46.10
2022-08-20T14:21:47.356Z,46.00
2022-08-20T14:26:51.556Z,46.40
2022-08-20T14:31:54.375Z,45.90
2022-08-20T14:36:58.148Z,45.90
2022-08-20T14:42:02.348Z,45.90
2022-08-20T14:47:12.792Z,45.90
2022-08-20T14:52:16.292Z,45.90
2022-08-20T14:57:20.852Z,45.90
2022-08-20T15:02:23.669Z,45.90
2022-08-20T15:07:27.564Z,45.80
2022-08-20T15:12:31.875Z,45.80
2022-08-20T15:17:35.153Z,45.70
2022-08-20T15:22:38.023Z,45.60
2022-08-20T15:27:42.266Z,45.50
2022-08-20T15:32:45.196Z,45.40
2022-08-20T15:37:49.133Z,45.30
2022-08-20T15:42:53.445Z,45.30
2022-08-20T15:48:00.469Z,45.20
2022-08-20T15:53:05.957Z,45.20
2022-08-20T15:58:15.761Z,45.20
2022-08-20T16:03:27.356Z,45.10
2022-08-20T16:08:40.369Z,45.00
2022-08-20T16:13:46.072Z,44.90
2022-08-20T16:18:51.185Z,44.80
2022-08-20T16:23:55.369Z,44.60
2022-08-20T16:29:04.665Z,44.50
2022-08-20T16:34:32.953Z,44.40
2022-08-20T16:39:39.629Z,44.50
2022-08-20T16:44:47.232Z,44.40
2022-08-20T16:49:52.046Z,44.40
2022-08-20T16:54:55.156Z,44.30
2022-08-20T17:00:00.982Z,44.30
2022-08-20T17:05:06.525Z,44.30
2022-08-20T17:10:12.483Z,44.30
2022-08-20T17:15:25.780Z,44.30
2022-08-20T17:20:29.249Z,44.30
2022-08-20T17:25:34.981Z,44.30
2022-08-20T17:30:39.573Z,44.30
2022-08-20T17:35:43.169Z,44.20
2022-08-20T17:40:47.108Z,44.10
2022-08-20T17:45:52.252Z,44.10
2022-08-20T17:50:55.342Z,44.10
2022-08-20T17:56:00.877Z,44.10
2022-08-20T18:01:05.387Z,44.00
2022-08-20T18:06:16.684Z,44.00
2022-08-20T18:11:24.900Z,44.00
2022-08-20T18:16:31.205Z,44.00
2022-08-20T18:21:53.715Z,43.90
2022-08-20T18:26:59.089Z,43.90
2022-08-20T18:32:04.339Z,43.90
2022-08-20T18:37:08.377Z,44.00
2022-08-20T18:42:23.660Z,43.90
2022-08-20T18:47:30.345Z,43.90
2022-08-20T18:52:34.572Z,43.90
2022-08-20T18:57:41.682Z,44.00
2022-08-20T19:02:55.581Z,44.00
2022-08-20T19:08:00.047Z,44.10
2022-08-20T19:13:20.790Z,44.00
2022-08-20T19:18:27.596Z,44.00
2022-08-20T19:23:33.888Z,44.00
2022-08-20T19:28:42.492Z,44.10
2022-08-20T19:33:47.197Z,44.10
2022-08-20T19:38:55.875Z,44.10
2022-08-20T19:43:59.809Z,44.10
2022-08-20T19:49:13.311Z,44.00
2022-08-20T19:54:20.416Z,43.90
2022-08-20T19:59:23.344Z,43.80
2022-08-20T20:04:29.836Z,43.80
2022-08-20T20:09:32.917Z,43.70
2022-08-20T20:14:37.120Z,43.70
2022-08-20T20:19:47.346Z,43.70
2022-08-20T20:25:05.762Z,43.70
2022-08-20T20:30:10.216Z,43.70
2022-08-20T20:35:23.812Z,43.60
2022-08-20T20:40:28.581Z,43.60
2022-08-20T20:45:33.724Z,43.60
2022-08-20T20:50:41.052Z,43.50
2022-08-20T20:55:54.041Z,43.50
2022-08-20T21:00:57.203Z,43.50
2022-08-20T21:06:02.020Z,43.60
2022-08-20T21:11:04.929Z,43.40
2022-08-20T21:16:08.368Z,43.50
2022-08-20T21:21:13.491Z,43.40
2022-08-20T21:26:16.435Z,43.40
2022-08-20T21:31:19.459Z,43.40
2022-08-20T21:36:23.724Z,43.40
2022-08-20T21:41:29.929Z,43.30
2022-08-20T21:46:33.193Z,43.30
2022-08-20T21:51:37.520Z,43.30
2022-08-20T21:56:40.416Z,43.40
2022-08-20T22:01:43.420Z,43.40
2022-08-20T22:06:48.211Z,43.30
2022-08-20T22:11:54.303Z,43.40
2022-08-20T22:16:58.796Z,43.30
2022-08-20T22:22:03.085Z,43.30
2022-08-20T22:27:06.387Z,43.30
2022-08-20T22:32:09.319Z,43.30
2022-08-20T22:37:14.048Z,43.30
2022-08-20T22:42:16.937Z,43.30
2022-08-20T22:47:23.591Z,43.30
2022-08-20T22:52:27.902Z,43.30
2022-08-20T22:57:30.822Z,43.30
2022-08-20T23:02:37.127Z,43.20
2022-08-20T23:07:41.654Z,43.30
2022-08-20T23:12:44.693Z,43.10
2022-08-20T23:17:48.085Z,43.20
2022-08-20T23:22:52.291Z,43.10
2022-08-20T23:28:04.090Z,43.20
2022-08-20T23:33:07.313Z,43.20
2022-08-20T23:38:11.864Z,43.10
2022-08-20T23:43:15.001Z,43.20
2022-08-20T23:48:17.842Z,43.10
2022-08-20T23:53:22.174Z,43.10
2022-08-20T23:58:24.958Z,43.10
